createdAt,value
2023-02-09T00:00:33.995Z,4.60
2023-02-09T00:03:01.334Z,3.58
2023-02-09T00:05:38.205Z,4.32
2023-02-09T00:08:16.676Z,4.43
2023-02-09T00:10:46.823Z,3.33
2023-02-09T00:13:24.845Z,3.00
2023-02-09T00:16:01.561Z,3.40
2023-02-09T00:18:31.704Z,3.35
2023-02-09T00:21:11.709Z,3.37
2023-02-09T00:23:41.698Z,2.65
2023-02-09T00:26:16.950Z,3.03
2023-02-09T00:28:45.173Z,3.22
2023-02-09T00:31:13.791Z,3.55
2023-02-09T00:33:41.571Z,2.77
2023-02-09T00:36:13.240Z,2.55
2023-02-09T00:38:44.957Z,2.80
2023-02-09T00:41:16.059Z,2.72
2023-02-09T00:43:46.174Z,2.90
2023-02-09T00:46:14.825Z,3.63
2023-02-09T00:48:52.941Z,3.33
2023-02-09T00:51:21.408Z,3.17
2023-02-09T00:53:51.131Z,2.40
2023-02-09T00:56:21.033Z,3.05
2023-02-09T00:58:53.310Z,2.83
2023-02-09T01:01:20.759Z,2.85
2023-02-09T01:03:48.098Z,3.28
2023-02-09T01:06:21.409Z,2.83
2023-02-09T01:08:51.280Z,2.25
2023-02-09T01:11:25.700Z,2.50
2023-02-09T01:14:06.525Z,2.53
2023-02-09T01:16:36.934Z,2.85
2023-02-09T01:19:04.412Z,2.95
2023-02-09T01:21:34.712Z,2.03
2023-02-09T01:24:13.415Z,2.10
2023-02-09T01:26:48.773Z,2.00
2023-02-09T01:29:19.797Z,2.38
2023-02-09T01:31:51.957Z,2.50
2023-02-09T01:34:21.509Z,2.88
2023-02-09T01:36:51.615Z,1.70
2023-02-09T01:39:18.882Z,2.65
2023-02-09T01:41:46.390Z,2.20
2023-02-09T01:44:16.265Z,2.60
2023-02-09T01:46:47.601Z,2.08
2023-02-09T01:49:20.786Z,2.47
2023-02-09T01:52:04.991Z,2.58
2023-02-09T01:55:03.426Z,2.33
2023-02-09T01:57:43.930Z,2.95
2023-02-09T02:00:18.165Z,2.58
2023-02-09T02:03:00.560Z,2.00
2023-02-09T02:05:31.105Z,2.72
2023-02-09T02:08:09.877Z,2.55
2023-02-09T02:10:39.783Z,2.38
2023-02-09T02:13:11.793Z,2.90
2023-02-09T02:16:07.232Z,3.27
2023-02-09T02:19:13.783Z,2.38
2023-02-09T02:22:06.850Z,2.00
2023-02-09T02:25:13.095Z,2.25
2023-02-09T02:27:47.027Z,2.30
2023-02-09T02:31:07.958Z,1.77
2023-02-09T02:34:23.086Z,1.17
2023-02-09T02:36:58.988Z,2.00
2023-02-09T02:40:07.301Z,1.80
2023-02-09T02:42:55.744Z,1.98
2023-02-09T02:45:37.983Z,2.43
2023-02-09T02:48:29.344Z,2.30
2023-02-09T02:51:11.052Z,3.03
2023-02-09T02:53:55.461Z,2.45
2023-02-09T02:56:40.550Z,1.73
2023-02-09T02:59:13.498Z,2.27
2023-02-09T03:01:47.847Z,2.95
2023-02-09T03:04:16.623Z,2.22
2023-02-09T03:06:43.812Z,2.17
2023-02-09T03:09:11.234Z,2.65
2023-02-09T03:11:43.123Z,1.83
2023-02-09T03:14:45.761Z,2.20
2023-02-09T03:17:50.592Z,2.38
2023-02-09T03:20:28.075Z,2.22
2023-02-09T03:23:02.454Z,2.28
2023-02-09T03:25:40.387Z,2.03
2023-02-09T03:28:10.585Z,2.53
2023-02-09T03:30:42.060Z,2.67
2023-02-09T03:33:25.997Z,1.92
2023-02-09T03:35:59.264Z,2.55
2023-02-09T03:38:32.440Z,2.20
2023-02-09T03:40:59.910Z,2.22
2023-02-09T03:44:04.545Z,2.25
2023-02-09T03:46:35.295Z,2.08
2023-02-09T03:49:02.864Z,2.63
2023-02-09T03:51:32.684Z,1.93
2023-02-09T03:54:04.243Z,2.05
2023-02-09T03:56:37.683Z,2.78
2023-02-09T03:59:09.140Z,2.25
2023-02-09T04:01:39.105Z,2.22
2023-02-09T04:04:10.756Z,1.93
2023-02-09T04:06:39.392Z,2.83
2023-02-09T04:09:09.296Z,2.13
2023-02-09T04:11:36.897Z,2.13
2023-02-09T04:14:17.944Z,2.15
2023-02-09T04:16:47.851Z,2.20
2023-02-09T04:19:17.214Z,2.70
2023-02-09T04:21:44.663Z,2.08
2023-02-09T04:24:15.342Z,2.20
2023-02-09T04:26:45.843Z,3.28
2023-02-09T04:29:18.043Z,2.20
2023-02-09T04:31:46.551Z,3.30
2023-02-09T04:34:18.900Z,2.35
2023-02-09T04:36:49.705Z,1.98
2023-02-09T04:39:21.115Z,2.10
2023-02-09T04:41:57.348Z,2.27
2023-02-09T04:44:34.547Z,2.40
2023-02-09T04:47:06.118Z,2.45
2023-02-09T04:49:43.587Z,2.67
2023-02-09T04:52:12.072Z,2.67
2023-02-09T04:54:44.722Z,2.63
2023-02-09T04:57:35.218Z,2.83
2023-02-09T05:00:05.703Z,3.28
2023-02-09T05:02:33.148Z,2.35
2023-02-09T05:05:00.498Z,2.00
2023-02-09T05:07:37.504Z,2.37
2023-02-09T05:10:07.785Z,3.30
2023-02-09T05:12:43.545Z,3.17
2023-02-09T05:15:14.216Z,2.42
2023-02-09T05:17:41.834Z,2.35
2023-02-09T05:20:17.411Z,3.37
2023-02-09T05:22:54.559Z,2.20
2023-02-09T05:25:24.943Z,3.45
2023-02-09T05:27:52.421Z,2.45
2023-02-09T05:30:29.283Z,2.70
2023-02-09T05:32:56.736Z,2.80
2023-02-09T05:35:35.579Z,2.80
2023-02-09T05:38:07.831Z,3.30
2023-02-09T05:40:37.764Z,3.03
2023-02-09T05:43:07.265Z,2.72
2023-02-09T05:45:34.620Z,2.80
2023-02-09T05:48:02.058Z,2.97
2023-02-09T05:50:29.525Z,2.80
2023-02-09T05:53:00.228Z,2.72
2023-02-09T05:55:29.234Z,3.38
2023-02-09T05:58:00.990Z,2.90
2023-02-09T06:00:31.879Z,3.25
2023-02-09T06:03:04.711Z,3.08
2023-02-09T06:05:38.319Z,2.92
2023-02-09T06:08:08.956Z,2.92
2023-02-09T06:10:38.671Z,3.23
2023-02-09T06:13:11.146Z,2.72
2023-02-09T06:15:44.604Z,2.33
2023-02-09T06:18:14.372Z,2.97
2023-02-09T06:20:41.668Z,2.85
2023-02-09T06:23:18.427Z,2.97
2023-02-09T06:25:53.221Z,3.85
2023-02-09T06:28:30.294Z,4.47
2023-02-09T06:31:01.930Z,3.22
2023-02-09T06:33:31.996Z,2.83
2023-02-09T06:36:03.528Z,3.90
2023-02-09T06:38:42.371Z,2.58
2023-02-09T06:41:17.464Z,3.22
2023-02-09T06:44:18.424Z,3.10
2023-02-09T06:46:51.744Z,3.20
2023-02-09T06:49:28.613Z,3.20
2023-02-09T06:52:16.356Z,1.98
2023-02-09T06:54:51.077Z,3.35
2023-02-09T06:57:35.249Z,2.25
2023-02-09T07:00:22.894Z,3.38
2023-02-09T07:02:56.456Z,2.60
2023-02-09T07:05:34.374Z,2.53
2023-02-09T07:08:09.498Z,2.20
2023-02-09T07:10:46.272Z,3.00
2023-02-09T07:13:28.468Z,3.20
2023-02-09T07:16:06.106Z,3.13
2023-02-09T07:18:37.108Z,2.97
2023-02-09T07:21:11.835Z,3.13
2023-02-09T07:23:40.726Z,2.80
2023-02-09T07:26:16.077Z,3.95
2023-02-09T07:28:51.549Z,3.37
2023-02-09T07:31:21.589Z,4.20
2023-02-09T07:33:56.797Z,3.47
2023-02-09T07:36:25.293Z,2.58
2023-02-09T07:38:52.568Z,3.78
2023-02-09T07:41:25.357Z,3.80
2023-02-09T07:43:52.995Z,2.53
2023-02-09T07:46:25.654Z,3.58
2023-02-09T07:48:53.000Z,3.55
2023-02-09T07:51:28.294Z,4.28
2023-02-09T07:53:57.785Z,3.87
2023-02-09T07:56:28.122Z,3.60
2023-02-09T07:58:56.619Z,3.35
2023-02-09T08:01:24.810Z,2.97
2023-02-09T08:03:52.536Z,3.67
2023-02-09T08:06:40.705Z,4.53
2023-02-09T08:09:10.860Z,2.95
2023-02-09T08:12:03.020Z,4.32
2023-02-09T08:14:44.227Z,3.03
2023-02-09T08:17:22.368Z,4.05
2023-02-09T08:20:04.212Z,6.50
2023-02-09T08:22:38.954Z,5.22
2023-02-09T08:25:18.698Z,4.75
2023-02-09T08:27:47.443Z,4.80
2023-02-09T08:30:17.777Z,5.15
2023-02-09T08:32:47.180Z,5.17
2023-02-09T08:35:17.003Z,5.05
2023-02-09T08:37:44.328Z,4.72
2023-02-09T08:40:13.998Z,5.68
2023-02-09T08:42:48.821Z,5.00
2023-02-09T08:45:16.397Z,5.90
2023-02-09T08:47:43.845Z,4.95
2023-02-09T08:50:11.206Z,6.25
2023-02-09T08:52:38.457Z,4.72
2023-02-09T08:55:09.207Z,5.00
2023-02-09T08:57:44.066Z,3.73
2023-02-09T09:00:13.370Z,4.10
2023-02-09T09:02:40.859Z,4.15
2023-02-09T09:05:08.863Z,3.78
2023-02-09T09:07:36.203Z,4.38
2023-02-09T09:10:08.983Z,4.00
2023-02-09T09:12:36.561Z,3.28
2023-02-09T09:15:05.295Z,3.83
2023-02-09T09:17:33.001Z,4.32
2023-02-09T09:20:02.295Z,3.38
2023-02-09T09:22:35.052Z,3.88
2023-02-09T09:25:03.465Z,3.55
2023-02-09T09:27:32.833Z,3.78
2023-02-09T09:30:00.161Z,3.92
2023-02-09T09:32:28.501Z,2.78
2023-02-09T09:34:58.932Z,3.08
2023-02-09T09:37:29.275Z,3.92
2023-02-09T09:39:56.785Z,3.58
2023-02-09T09:42:49.215Z,3.53
2023-02-09T09:45:21.904Z,2.85
2023-02-09T09:47:49.459Z,3.10
2023-02-09T09:50:26.410Z,3.92
2023-02-09T09:53:33.205Z,4.38
2023-02-09T09:56:07.642Z,3.20
2023-02-09T09:58:39.770Z,3.70
2023-02-09T10:01:15.220Z,2.95
2023-02-09T10:03:43.081Z,3.03
2023-02-09T10:06:22.614Z,4.38
2023-02-09T10:08:55.964Z,4.82
2023-02-09T10:11:42.665Z,3.90
2023-02-09T10:14:10.767Z,3.50
2023-02-09T10:16:38.384Z,3.88
2023-02-09T10:19:21.546Z,4.28
2023-02-09T10:21:51.754Z,4.03
2023-02-09T10:24:32.593Z,4.00
2023-02-09T10:27:05.337Z,3.67
2023-02-09T10:29:32.554Z,4.35
2023-02-09T10:32:14.976Z,3.78
2023-02-09T10:34:54.886Z,4.15
2023-02-09T10:37:34.339Z,3.17
2023-02-09T10:40:15.499Z,3.78
2023-02-09T10:42:59.677Z,4.55
2023-02-09T10:45:42.773Z,4.25
2023-02-09T10:48:12.985Z,4.05
2023-02-09T10:51:06.065Z,4.47
2023-02-09T10:53:40.533Z,4.15
2023-02-09T10:56:25.181Z,3.83
2023-02-09T10:59:12.893Z,3.70
2023-02-09T11:01:43.259Z,3.90
2023-02-09T11:04:16.505Z,3.80
2023-02-09T11:07:01.524Z,4.57
2023-02-09T11:09:55.694Z,4.20
2023-02-09T11:12:24.818Z,5.20
2023-02-09T11:14:51.851Z,4.45
2023-02-09T11:17:26.530Z,5.05
2023-02-09T11:20:30.805Z,5.60
2023-02-09T11:23:12.377Z,4.90
2023-02-09T11:25:54.771Z,5.50
2023-02-09T11:29:08.586Z,4.78
2023-02-09T11:32:20.014Z,5.10
2023-02-09T11:35:12.706Z,4.07
2023-02-09T11:37:45.556Z,4.82
2023-02-09T11:40:33.403Z,5.35
2023-02-09T11:43:25.347Z,5.60
2023-02-09T11:45:58.719Z,5.93
2023-02-09T11:48:34.691Z,5.65
2023-02-09T11:51:20.085Z,5.05
2023-02-09T11:53:59.891Z,6.25
2023-02-09T11:56:29.113Z,6.38
2023-02-09T11:59:32.179Z,6.28
2023-02-09T12:02:47.462Z,5.95
2023-02-09T12:05:19.879Z,5.53
2023-02-09T12:08:01.950Z,6.95
2023-02-09T12:11:04.058Z,6.55
2023-02-09T12:14:00.872Z,6.65
2023-02-09T12:16:35.095Z,6.75
2023-02-09T12:19:04.511Z,6.43
2023-02-09T12:21:38.226Z,6.70
2023-02-09T12:24:33.114Z,5.55
2023-02-09T12:27:00.391Z,6.90
2023-02-09T12:29:39.319Z,7.22
2023-02-09T12:32:06.681Z,6.70
2023-02-09T12:34:52.376Z,8.25
2023-02-09T12:37:29.266Z,7.40
2023-02-09T12:40:11.527Z,8.18
2023-02-09T12:42:53.994Z,7.25
2023-02-09T12:45:43.644Z,7.87
2023-02-09T12:48:19.995Z,7.57
2023-02-09T12:50:53.907Z,7.88
2023-02-09T12:53:33.030Z,7.68
2023-02-09T12:56:09.508Z,7.63
2023-02-09T12:58:45.887Z,7.20
2023-02-09T13:01:16.211Z,8.63
2023-02-09T13:04:07.917Z,7.93
2023-02-09T13:06:51.635Z,8.95
2023-02-09T13:09:40.990Z,8.13
2023-02-09T13:12:20.379Z,9.47
2023-02-09T13:14:50.882Z,7.95
2023-02-09T13:17:48.919Z,9.30
2023-02-09T13:20:34.732Z,8.57
2023-02-09T13:23:20.596Z,8.77
2023-02-09T13:25:48.323Z,8.40
2023-02-09T13:28:19.818Z,8.70
2023-02-09T13:30:47.637Z,8.98
2023-02-09T13:33:51.455Z,8.10
2023-02-09T13:36:45.660Z,9.05
2023-02-09T13:39:26.078Z,8.63
2023-02-09T13:41:54.819Z,8.52
2023-02-09T13:44:32.020Z,8.63
2023-02-09T13:47:02.079Z,8.85
2023-02-09T13:49:30.587Z,8.90
2023-02-09T13:52:21.254Z,8.83
2023-02-09T13:54:48.440Z,8.45
2023-02-09T13:58:07.168Z,9.43
2023-02-09T14:00:44.769Z,8.32
2023-02-09T14:03:25.870Z,8.23
2023-02-09T14:06:20.415Z,9.63
2023-02-09T14:08:50.860Z,8.35
2023-02-09T14:11:43.387Z,8.95
2023-02-09T14:14:25.007Z,9.05
2023-02-09T14:17:24.366Z,9.13
2023-02-09T14:19:54.377Z,9.50
2023-02-09T14:22:31.283Z,8.95
2023-02-09T14:24:59.144Z,9.93
2023-02-09T14:27:33.078Z,10.15
2023-02-09T14:30:01.330Z,10.40
2023-02-09T14:32:36.732Z,9.43
2023-02-09T14:35:19.491Z,10.02
2023-02-09T14:37:48.302Z,9.40
2023-02-09T14:40:26.751Z,10.48
2023-02-09T14:43:25.140Z,8.90
2023-02-09T14:46:01.859Z,8.87
2023-02-09T14:48:31.373Z,9.02
2023-02-09T14:51:01.908Z,9.02
2023-02-09T14:53:31.908Z,9.38
2023-02-09T14:55:59.453Z,10.10
2023-02-09T14:58:29.590Z,9.20
2023-02-09T15:01:00.736Z,10.02
2023-02-09T15:03:28.906Z,9.68
2023-02-09T15:06:01.340Z,9.65
2023-02-09T15:08:36.005Z,9.40
2023-02-09T15:11:29.639Z,9.30
2023-02-09T15:14:03.749Z,9.15
2023-02-09T15:16:32.024Z,9.07
2023-02-09T15:18:59.351Z,9.85
2023-02-09T15:21:26.586Z,10.18
2023-02-09T15:23:53.745Z,9.27
2023-02-09T15:26:22.940Z,9.32
2023-02-09T15:28:50.347Z,9.02
2023-02-09T15:31:17.829Z,9.35
2023-02-09T15:33:45.400Z,8.57
2023-02-09T15:36:18.903Z,8.10
2023-02-09T15:38:47.931Z,9.50
2023-02-09T15:41:36.102Z,9.57
2023-02-09T15:44:39.070Z,9.00
2023-02-09T15:47:25.108Z,8.60
2023-02-09T15:49:52.265Z,9.30
2023-02-09T15:52:19.690Z,10.20
2023-02-09T15:54:47.470Z,8.48
2023-02-09T15:57:15.660Z,9.60
2023-02-09T15:59:42.783Z,9.32
2023-02-09T16:02:15.062Z,9.33
2023-02-09T16:04:42.562Z,9.68
2023-02-09T16:07:22.944Z,9.27
2023-02-09T16:09:50.281Z,10.57
2023-02-09T16:12:17.438Z,9.38
2023-02-09T16:14:44.616Z,9.90
2023-02-09T16:17:11.763Z,9.30
2023-02-09T16:19:39.840Z,9.55
2023-02-09T16:22:07.863Z,9.20
2023-02-09T16:24:47.691Z,9.60
2023-02-09T16:27:24.117Z,9.50
2023-02-09T16:29:51.489Z,8.77
2023-02-09T16:32:22.669Z,8.60
2023-02-09T16:34:51.157Z,9.77
2023-02-09T16:37:28.172Z,9.23
2023-02-09T16:39:56.213Z,9.57
2023-02-09T16:42:25.449Z,10.18
2023-02-09T16:44:53.281Z,10.93
2023-02-09T16:47:25.227Z,9.35
2023-02-09T16:50:00.859Z,9.05
2023-02-09T16:52:30.276Z,9.40
2023-02-09T16:55:00.926Z,9.05
2023-02-09T16:57:29.214Z,9.57
2023-02-09T16:59:56.787Z,9.38
2023-02-09T17:02:37.153Z,10.07
2023-02-09T17:05:32.365Z,10.07
2023-02-09T17:08:07.973Z,9.68
2023-02-09T17:10:35.972Z,9.75
2023-02-09T17:13:04.828Z,9.20
2023-02-09T17:15:41.708Z,10.35
2023-02-09T17:18:16.009Z,8.55
2023-02-09T17:20:50.321Z,10.00
2023-02-09T17:23:23.444Z,9.27
2023-02-09T17:25:54.950Z,10.63
2023-02-09T17:28:27.126Z,10.30
2023-02-09T17:31:03.106Z,10.33
2023-02-09T17:33:33.778Z,10.10
2023-02-09T17:38:50.092Z,11.10
2023-02-09T17:41:21.493Z,10.82
2023-02-09T17:43:50.868Z,10.93
2023-02-09T17:46:19.368Z,11.68
2023-02-09T17:48:47.501Z,12.70
2023-02-09T17:51:22.607Z,10.68
2023-02-09T17:53:50.124Z,11.25
2023-02-09T17:56:18.593Z,11.13
2023-02-09T17:58:48.385Z,10.70
2023-02-09T18:01:31.811Z,11.23
2023-02-09T18:04:02.501Z,10.55
2023-02-09T18:06:40.065Z,9.93
2023-02-09T18:09:12.655Z,12.30
2023-02-09T18:12:00.338Z,11.40
2023-02-09T18:14:32.943Z,12.02
2023-02-09T18:17:00.939Z,12.05
2023-02-09T18:19:30.414Z,11.57
2023-02-09T18:22:00.515Z,11.43
2023-02-09T18:24:31.404Z,11.10
2023-02-09T18:27:01.757Z,10.13
2023-02-09T18:29:32.135Z,12.32
2023-02-09T18:32:02.224Z,12.27
2023-02-09T18:34:38.973Z,13.38
2023-02-09T18:37:06.727Z,12.82
2023-02-09T18:39:38.815Z,12.75
2023-02-09T18:42:10.318Z,12.30
2023-02-09T18:44:40.091Z,11.65
2023-02-09T18:47:07.405Z,11.68
2023-02-09T18:49:34.585Z,11.82
2023-02-09T18:52:02.478Z,11.77
2023-02-09T18:54:33.723Z,12.85
2023-02-09T18:57:01.126Z,13.38
2023-02-09T18:59:32.306Z,13.15
2023-02-09T19:02:00.318Z,13.48
2023-02-09T19:04:27.866Z,14.63
2023-02-09T19:06:55.227Z,11.88
2023-02-09T19:09:22.540Z,12.07
2023-02-09T19:11:54.040Z,13.35
2023-02-09T19:14:39.737Z,13.48
2023-02-09T19:17:16.260Z,12.45
2023-02-09T19:19:46.106Z,13.95
2023-02-09T19:22:25.000Z,13.50
2023-02-09T19:24:58.545Z,12.32
2023-02-09T19:27:27.868Z,13.32
2023-02-09T19:29:57.779Z,12.13
2023-02-09T19:32:26.769Z,11.88
2023-02-09T19:34:54.054Z,12.18
2023-02-09T19:37:24.262Z,14.60
2023-02-09T19:40:04.034Z,13.32
2023-02-09T19:42:34.683Z,12.85
2023-02-09T19:45:02.011Z,12.70
2023-02-09T19:47:29.208Z,13.27
2023-02-09T19:49:58.281Z,12.38
2023-02-09T19:52:28.587Z,13.13
2023-02-09T19:54:57.668Z,12.98
2023-02-09T19:57:25.205Z,17.25
2023-02-09T20:00:02.418Z,13.75
2023-02-09T20:02:36.108Z,12.60
2023-02-09T20:05:03.397Z,13.68
2023-02-09T20:07:30.646Z,13.55
2023-02-09T20:09:58.156Z,12.80
2023-02-09T20:12:25.454Z,13.98
2023-02-09T20:14:56.368Z,14.57
2023-02-09T20:17:23.675Z,12.85
2023-02-09T20:19:50.833Z,12.82
2023-02-09T20:22:18.035Z,13.05
2023-02-09T20:24:45.341Z,13.40
2023-02-09T20:27:13.085Z,12.30
2023-02-09T20:29:40.263Z,12.05
2023-02-09T20:32:07.558Z,12.88
2023-02-09T20:34:34.905Z,13.43
2023-02-09T20:37:02.140Z,12.45
2023-02-09T20:39:29.485Z,12.90
2023-02-09T20:42:17.008Z,11.90
2023-02-09T20:45:03.053Z,11.93
2023-02-09T20:47:30.310Z,13.75
2023-02-09T20:50:00.154Z,11.55
2023-02-09T20:52:29.265Z,11.38
2023-02-09T20:54:56.881Z,12.88
2023-02-09T20:57:29.402Z,13.30
2023-02-09T21:00:00.677Z,13.95
2023-02-09T21:02:28.062Z,14.48
2023-02-09T21:04:57.868Z,15.27
2023-02-09T21:07:25.489Z,13.43
2023-02-09T21:09:56.295Z,12.43
2023-02-09T21:12:23.554Z,13.80
2023-02-09T21:14:50.875Z,13.60
2023-02-09T21:17:19.900Z,12.60
2023-02-09T21:19:47.069Z,13.32
2023-02-09T21:22:15.866Z,11.95
2023-02-09T21:24:43.446Z,12.35
2023-02-09T21:27:10.860Z,12.95
2023-02-09T21:29:38.044Z,11.65
2023-02-09T21:32:07.331Z,13.07
2023-02-09T21:34:34.526Z,12.63
2023-02-09T21:37:01.671Z,12.05
2023-02-09T21:39:28.882Z,12.13
2023-02-09T21:42:14.556Z,11.93
2023-02-09T21:44:41.600Z,12.35
2023-02-09T21:47:09.039Z,11.82
2023-02-09T21:49:36.260Z,10.75
2023-02-09T21:52:03.503Z,11.70
2023-02-09T21:54:33.741Z,12.80
2023-02-09T21:57:02.289Z,13.25
2023-02-09T21:59:29.911Z,12.68
2023-02-09T22:01:57.278Z,12.27
2023-02-09T22:04:25.773Z,12.23
2023-02-09T22:06:53.087Z,11.85
2023-02-09T22:09:20.660Z,11.50
2023-02-09T22:11:47.966Z,11.80
2023-02-09T22:14:15.259Z,11.00
2023-02-09T22:16:42.727Z,11.20
2023-02-09T22:19:10.050Z,12.52
2023-02-09T22:21:37.332Z,12.45
2023-02-09T22:24:05.073Z,12.70
2023-02-09T22:26:39.617Z,11.23
2023-02-09T22:29:17.327Z,11.57
2023-02-09T22:31:45.251Z,12.00
2023-02-09T22:34:14.864Z,12.45
2023-02-09T22:36:44.576Z,12.65
2023-02-09T22:39:12.020Z,13.50
2023-02-09T22:41:39.240Z,12.50
2023-02-09T22:44:10.879Z,12.70
2023-02-09T22:46:40.708Z,14.23
2023-02-09T22:49:18.437Z,12.70
2023-02-09T22:51:47.908Z,12.43
2023-02-09T22:54:17.936Z,13.68
2023-02-09T22:56:45.522Z,12.30
2023-02-09T22:59:14.859Z,12.10
2023-02-09T23:01:43.329Z,11.82
2023-02-09T23:04:11.117Z,12.40
2023-02-09T23:06:39.935Z,13.40
2023-02-09T23:09:08.252Z,11.80
2023-02-09T23:11:36.322Z,13.10
2023-02-09T23:14:10.149Z,12.77
2023-02-09T23:16:41.196Z,13.02
2023-02-09T23:19:13.285Z,12.05
2023-02-09T23:21:47.270Z,11.75
2023-02-09T23:24:18.189Z,12.80
2023-02-09T23:26:48.712Z,11.60
2023-02-09T23:29:22.485Z,12.57
2023-02-09T23:31:53.298Z,11.90
2023-02-09T23:34:23.196Z,13.27
2023-02-09T23:36:55.314Z,13.57
2023-02-09T23:39:27.562Z,13.77
2023-02-09T23:41:54.973Z,13.60
2023-02-09T23:44:27.772Z,11.70
2023-02-09T23:46:55.188Z,12.57
2023-02-09T23:49:25.348Z,12.30
2023-02-09T23:51:55.470Z,11.88
2023-02-09T23:54:22.872Z,12.20
2023-02-09T23:56:53.817Z,13.15
2023-02-09T23:59:21.203Z,11.75
